Time;durP1;ratioP1;P1;durP2;ratioP2;P2;SDS_P1;SDS_P2;PMS_P1;PMS_P2;Temp;Humidity;BMP_temperature;BMP_pressure;BME280_temperature;BME280_humidity;BME280_pressure;Samples;Min_cycle;Max_cycle;Signal;HPM_P1;HPM_P2
2021/07/15 00:02:25;;;;;;;1.98;1.83;;;22.50;63.10;;;;;;5063106;28;20098;-25
2021/07/15 00:04:51;;;;;;;2.05;1.23;;;22.50;63.00;;;;;;5062139;28;20029;-31
2021/07/15 00:07:16;;;;;;;4.82;2.00;;;22.50;63.20;;;;;;5060252;28;20036;-32
2021/07/15 00:09:42;;;;;;;1.83;1.73;;;22.60;63.20;;;;;;5064477;28;20066;-31
2021/07/15 00:12:08;;;;;;;1.70;1.60;;;22.50;63.20;;;;;;5072533;28;20408;-31
2021/07/15 00:14:34;;;;;;;1.63;1.60;;;22.60;63.20;;;;;;5057963;28;20022;-27
2021/07/15 00:16:59;;;;;;;1.90;1.70;;;22.60;63.50;;;;;;5067805;28;20036;-29
2021/07/15 00:19:26;;;;;;;1.40;1.40;;;22.60;63.40;;;;;;5071491;28;20400;-30
2021/07/15 00:21:52;;;;;;;1.50;1.40;;;22.50;63.30;;;;;;5056140;28;20017;-31
2021/07/15 00:24:18;;;;;;;1.70;1.60;;;22.60;63.70;;;;;;5066404;28;20504;-25
2021/07/15 00:26:47;;;;;;;1.23;1.23;;;22.60;63.80;;;;;;5062933;28;20083;-21
2021/07/15 00:29:12;;;;;;;3.08;1.40;;;22.60;63.60;;;;;;5064180;28;20481;-28
2021/07/15 00:31:38;;;;;;;2.53;1.98;;;22.70;63.50;;;;;;5060269;28;20035;-27
2021/07/15 00:34:04;;;;;;;2.03;1.73;;;22.70;63.30;;;;;;5063342;28;20079;-27
2021/07/15 00:36:29;;;;;;;8.75;1.60;;;22.60;63.40;;;;;;5071121;28;20052;-31
2021/07/15 00:38:55;;;;;;;2.22;1.90;;;22.60;63.10;;;;;;5063344;28;20033;-25
2021/07/15 00:41:21;;;;;;;1.88;1.77;;;22.60;63.40;;;;;;5063849;28;20020;-28
2021/07/15 00:43:46;;;;;;;1.73;1.60;;;22.50;63.60;;;;;;5050017;28;20099;-28
2021/07/15 00:46:12;;;;;;;1.98;1.67;;;22.50;64.50;;;;;;5056805;28;20390;-26
2021/07/15 00:48:37;;;;;;;1.70;1.58;;;22.40;64.60;;;;;;5055765;28;20017;-30
2021/07/15 00:51:05;;;;;;;1.77;1.67;;;22.40;63.80;;;;;;5064294;28;20032;-33
2021/07/15 00:53:30;;;;;;;2.33;1.90;;;22.40;63.80;;;;;;5060803;28;20020;-28
2021/07/15 00:55:56;;;;;;;1.77;1.38;;;22.40;63.80;;;;;;5043841;28;20039;-31
2021/07/15 00:58:21;;;;;;;1.30;1.30;;;22.40;63.80;;;;;;5047321;28;20029;-31
2021/07/15 01:00:48;;;;;;;1.50;1.40;;;22.30;63.90;;;;;;5053280;28;20037;-29
2021/07/15 01:03:14;;;;;;;2.20;2.00;;;22.30;64.00;;;;;;5069830;28;20034;-32
2021/07/15 01:05:45;;;;;;;1.88;1.77;;;22.20;64.10;;;;;;5065983;28;20021;-28
2021/07/15 01:08:12;;;;;;;1.70;1.60;;;22.20;64.20;;;;;;5059094;28;20036;-29
2021/07/15 01:10:45;;;;;;;1.48;1.40;;;22.20;64.10;;;;;;5065719;28;20452;-35
2021/07/15 01:13:17;;;;;;;1.60;1.50;;;22.20;64.10;;;;;;5069209;28;20025;-30
2021/07/15 01:15:58;;;;;;;1.63;1.58;;;22.20;64.20;;;;;;5056568;28;20025;-30
2021/07/15 01:18:26;;;;;;;1.90;1.80;;;22.20;64.20;;;;;;5069665;28;20382;-29
2021/07/15 01:21:19;;;;;;;1.73;1.58;;;22.20;64.30;;;;;;5067776;28;20031;-27
2021/07/15 01:24:15;;;;;;;3.05;1.70;;;22.20;64.30;;;;;;5059533;28;20028;-33
2021/07/15 01:26:41;;;;;;;4.18;1.50;;;22.10;65.00;;;;;;5059078;28;20032;-30
2021/07/15 01:29:44;;;;;;;1.30;1.30;;;22.10;64.20;;;;;;5058517;28;20017;-30
2021/07/15 01:32:09;;;;;;;1.50;1.40;;;22.10;64.30;;;;;;5058731;28;20029;-32
2021/07/15 01:34:35;;;;;;;1.55;1.55;;;22.10;64.40;;;;;;5039014;28;20753;-33
2021/07/15 01:37:00;;;;;;;1.70;1.60;;;22.10;64.30;;;;;;5041581;28;20063;-31
2021/07/15 01:39:28;;;;;;;1.55;1.45;;;22.10;64.30;;;;;;5056936;28;20124;-34
2021/07/15 01:41:56;;;;;;;1.70;1.60;;;22.10;64.30;;;;;;5052902;28;20103;-31
2021/07/15 01:44:26;;;;;;;1.60;1.55;;;22.10;64.40;;;;;;5045099;28;20556;-28
2021/07/15 01:46:51;;;;;;;1.75;1.65;;;22.10;64.40;;;;;;5049300;28;20028;-30
2021/07/15 01:49:17;;;;;;;1.85;1.58;;;22.10;64.40;;;;;;5033802;28;20417;-28
2021/07/15 01:51:43;;;;;;;1.80;1.70;;;22.10;64.40;;;;;;5070429;28;20028;-31
2021/07/15 01:54:09;;;;;;;2.72;1.58;;;22.00;64.40;;;;;;5039734;28;20041;-32
2021/07/15 01:56:36;;;;;;;1.60;1.42;;;22.00;64.50;;;;;;5058500;28;20669;-31
2021/07/15 01:59:02;;;;;;;1.70;1.60;;;22.00;64.60;;;;;;5040255;28;20036;-33
2021/07/15 02:01:28;;;;;;;1.48;1.38;;;22.00;64.70;;;;;;5040268;28;20017;-32
2021/07/15 02:03:55;;;;;;;1.80;1.70;;;22.00;64.60;;;;;;5038760;28;20039;-33
2021/07/15 02:06:21;;;;;;;1.38;1.38;;;22.00;64.60;;;;;;5034502;28;20099;-28
2021/07/15 02:08:47;;;;;;;1.73;1.63;;;22.00;64.80;;;;;;5058225;28;20116;-27
2021/07/15 02:11:13;;;;;;;1.90;1.80;;;22.00;64.60;;;;;;5039982;28;20037;-33
2021/07/15 02:13:39;;;;;;;1.08;1.08;;;22.00;64.80;;;;;;5056703;28;20037;-29
2021/07/15 02:16:04;;;;;;;1.48;1.40;;;22.00;64.80;;;;;;5052227;28;20099;-31
2021/07/15 02:18:30;;;;;;;1.58;1.50;;;22.00;64.90;;;;;;5021241;28;20033;-30
2021/07/15 02:20:55;;;;;;;1.40;1.40;;;22.00;64.90;;;;;;5038976;28;20029;-32
2021/07/15 02:23:21;;;;;;;1.30;1.30;;;22.00;64.90;;;;;;5023664;28;20078;-28
2021/07/15 02:25:51;;;;;;;1.35;1.30;;;22.00;65.00;;;;;;5040106;28;20493;-27
2021/07/15 02:28:18;;;;;;;1.52;1.50;;;22.00;65.00;;;;;;5055939;28;20029;-27
2021/07/15 02:30:48;;;;;;;1.80;1.70;;;21.90;65.00;;;;;;5054706;28;20151;-28
2021/07/15 02:33:16;;;;;;;1.50;1.45;;;22.00;65.10;;;;;;5039577;28;20059;-29
2021/07/15 02:35:46;;;;;;;1.42;1.33;;;21.90;65.10;;;;;;5039821;28;20023;-30
2021/07/15 02:38:12;;;;;;;1.23;1.23;;;22.00;65.20;;;;;;5038250;28;20489;-28
2021/07/15 02:40:38;;;;;;;1.70;1.70;;;21.90;65.10;;;;;;5039813;28;20021;-28
2021/07/15 02:43:04;;;;;;;1.45;1.35;;;21.90;65.20;;;;;;5054269;28;20070;-30
2021/07/15 02:45:29;;;;;;;1.25;1.25;;;21.90;65.10;;;;;;5055697;28;20028;-30
2021/07/15 02:47:55;;;;;;;1.40;1.30;;;21.90;65.20;;;;;;5057257;28;20478;-27
2021/07/15 02:50:22;;;;;;;1.27;1.27;;;21.90;65.20;;;;;;5059028;28;20025;-29
2021/07/15 02:52:49;;;;;;;1.10;1.10;;;21.90;65.20;;;;;;5065942;28;20039;-28
2021/07/15 02:55:14;;;;;;;1.50;1.50;;;21.90;65.20;;;;;;5037787;28;20513;-25
2021/07/15 02:57:49;;;;;;;1.60;1.50;;;21.90;66.00;;;;;;5037021;28;20045;-29
2021/07/15 03:00:16;;;;;;;1.48;1.38;;;21.90;65.20;;;;;;5050409;28;20035;-27
2021/07/15 03:03:09;;;;;;;1.55;1.50;;;21.90;65.20;;;;;;5045854;28;20485;-27
2021/07/15 03:05:49;;;;;;;1.67;1.58;;;22.00;65.10;;;;;;5065203;28;20024;-30
2021/07/15 03:08:19;;;;;;;1.50;1.40;;;22.00;65.00;;;;;;5065135;28;20426;-26
2021/07/15 03:10:46;;;;;;;1.17;1.17;;;22.00;64.90;;;;;;5030886;28;20446;-32
2021/07/15 03:13:11;;;;;;;1.25;1.25;;;22.00;64.80;;;;;;5050317;28;20033;-26
2021/07/15 03:15:38;;;;;;;1.45;1.35;;;22.10;64.80;;;;;;5050426;28;20021;-31
2021/07/15 03:18:04;;;;;;;1.45;1.40;;;22.10;64.90;;;;;;5048735;28;20032;-33
2021/07/15 03:20:32;;;;;;;2.22;1.55;;;22.00;64.80;;;;;;5025403;28;20037;-31
2021/07/15 03:23:00;;;;;;;1.52;1.42;;;22.10;64.90;;;;;;5026575;28;20115;-29
2021/07/15 03:25:25;;;;;;;1.38;1.38;;;22.00;64.80;;;;;;5050281;28;20028;-30
2021/07/15 03:27:52;;;;;;;1.90;1.80;;;22.10;64.80;;;;;;5034894;28;20040;-32
2021/07/15 03:30:18;;;;;;;1.40;1.40;;;22.10;64.80;;;;;;5032764;28;20123;-30
2021/07/15 03:32:46;;;;;;;1.30;1.30;;;22.10;64.80;;;;;;5039976;28;20083;-28
2021/07/15 03:35:12;;;;;;;2.58;1.67;;;22.10;64.80;;;;;;5056626;28;20167;-29
2021/07/15 03:37:38;;;;;;;1.50;1.50;;;22.10;64.80;;;;;;5037516;28;20516;-28
2021/07/15 03:40:05;;;;;;;1.50;1.50;;;22.00;64.80;;;;;;5036522;28;20033;-28
2021/07/15 03:42:30;;;;;;;1.80;1.70;;;22.10;64.80;;;;;;5037024;28;20032;-27
2021/07/15 03:44:56;;;;;;;1.40;1.30;;;22.10;64.80;;;;;;5022706;28;20025;-29
2021/07/15 03:47:22;;;;;;;1.10;1.10;;;22.10;64.80;;;;;;5032177;28;20103;-28
2021/07/15 03:49:47;;;;;;;1.25;1.25;;;22.10;64.80;;;;;;5065256;28;20025;-28
2021/07/15 03:52:14;;;;;;;1.42;1.30;;;22.10;64.90;;;;;;5036621;28;20117;-28
2021/07/15 03:54:40;;;;;;;1.67;1.58;;;22.10;64.80;;;;;;5054133;28;20029;-31
2021/07/15 03:57:06;;;;;;;1.35;1.35;;;22.10;64.90;;;;;;5038382;28;20433;-27
2021/07/15 03:59:32;;;;;;;1.20;1.20;;;22.10;64.90;;;;;;5038487;28;20029;-31
2021/07/15 04:02:01;;;;;;;1.60;1.50;;;22.10;64.90;;;;;;5038602;28;20074;-31
2021/07/15 04:04:28;;;;;;;1.40;1.40;;;22.10;64.90;;;;;;5050391;28;20074;-25
2021/07/15 04:06:54;;;;;;;1.70;1.60;;;22.10;65.50;;;;;;5034847;28;20120;-25
2021/07/15 04:09:19;;;;;;;1.38;1.33;;;22.10;65.00;;;;;;5021238;28;20104;-26
2021/07/15 04:11:45;;;;;;;1.33;1.30;;;22.10;65.80;;;;;;5046778;28;20072;-29
2021/07/15 04:14:14;;;;;;;1.40;1.30;;;22.10;64.90;;;;;;5030562;28;20027;-30
2021/07/15 04:16:58;;;;;;;1.45;1.38;;;22.10;65.00;;;;;;5045111;28;20032;-30
2021/07/15 04:19:24;;;;;;;1.50;1.40;;;22.10;65.00;;;;;;5065432;28;20040;-26
2021/07/15 04:21:50;;;;;;;1.48;1.38;;;22.10;65.10;;;;;;5050489;28;20581;-25
2021/07/15 04:24:15;;;;;;;1.15;1.15;;;22.10;65.10;;;;;;5049221;28;20489;-30
2021/07/15 04:26:41;;;;;;;1.60;1.50;;;22.10;65.10;;;;;;5039255;28;20055;-32
2021/07/15 04:29:07;;;;;;;1.42;1.42;;;22.00;65.30;;;;;;5038614;28;20462;-29
2021/07/15 04:31:36;;;;;;;1.70;1.60;;;22.00;65.30;;;;;;5038173;28;20071;-28
2021/07/15 04:34:02;;;;;;;1.60;1.50;;;22.00;65.40;;;;;;5052759;28;20096;-29
2021/07/15 04:36:29;;;;;;;1.63;1.52;;;22.00;65.20;;;;;;5036989;28;20104;-28
2021/07/15 04:38:55;;;;;;;1.67;1.58;;;22.00;65.30;;;;;;5047994;28;20040;-27
2021/07/15 04:41:21;;;;;;;1.50;1.40;;;22.00;65.20;;;;;;5046342;28;20036;-29
2021/07/15 04:43:47;;;;;;;1.42;1.40;;;22.00;65.30;;;;;;5048835;28;20386;-27
2021/07/15 04:46:14;;;;;;;1.48;1.38;;;22.00;65.30;;;;;;5067395;28;20029;-32
2021/07/15 04:48:40;;;;;;;1.88;1.77;;;22.00;65.40;;;;;;5069627;28;20032;-28
2021/07/15 04:51:06;;;;;;;1.70;1.60;;;22.00;65.40;;;;;;5044629;28;20028;-28
2021/07/15 04:53:32;;;;;;;1.75;1.65;;;22.00;65.40;;;;;;5045798;28;20147;-30
2021/07/15 04:55:57;;;;;;;1.30;1.30;;;22.00;65.30;;;;;;5043942;28;20375;-33
2021/07/15 04:58:23;;;;;;;1.17;1.17;;;22.00;65.40;;;;;;5050598;28;20044;-29
2021/07/15 05:00:49;;;;;;;1.65;1.55;;;22.00;65.50;;;;;;5069093;28;20032;-31
2021/07/15 05:03:32;;;;;;;1.27;1.27;;;21.90;65.50;;;;;;5040793;28;20025;-27
2021/07/15 05:06:01;;;;;;;1.77;1.67;;;21.90;65.50;;;;;;5059505;28;20048;-29
2021/07/15 05:08:27;;;;;;;1.45;1.45;;;21.90;65.70;;;;;;5065237;28;20020;-27
2021/07/15 05:10:52;;;;;;;1.52;1.42;;;21.90;65.50;;;;;;5071853;28;20051;-30
2021/07/15 05:13:18;;;;;;;1.52;1.42;;;21.90;65.50;;;;;;5067907;28;20032;-27
2021/07/15 05:15:48;;;;;;;1.52;1.52;;;21.90;65.60;;;;;;5069970;28;20795;-26
2021/07/15 05:18:14;;;;;;;1.60;1.50;;;21.90;65.70;;;;;;5053797;28;20041;-27
2021/07/15 05:20:39;;;;;;;1.65;1.50;;;21.90;65.70;;;;;;5057201;28;20520;-29
2021/07/15 05:23:05;;;;;;;1.50;1.40;;;21.90;65.60;;;;;;5059801;28;20035;-33
2021/07/15 05:25:31;;;;;;;1.50;1.40;;;22.00;65.60;;;;;;5060432;28;20031;-27
2021/07/15 05:27:56;;;;;;;2.15;1.55;;;22.00;65.60;;;;;;5056346;28;20029;-29
2021/07/15 05:30:22;;;;;;;1.70;1.60;;;21.90;65.70;;;;;;5057411;28;20040;-30
2021/07/15 05:32:48;;;;;;;1.77;1.67;;;21.90;65.70;;;;;;5057206;28;20563;-30
2021/07/15 05:35:13;;;;;;;1.40;1.40;;;21.90;65.70;;;;;;5061439;28;20031;-28
2021/07/15 05:37:40;;;;;;;1.70;1.60;;;21.90;65.70;;;;;;5066885;28;20029;-27
2021/07/15 05:40:07;;;;;;;1.38;1.27;;;21.90;65.70;;;;;;5066405;28;20036;-29
2021/07/15 05:42:32;;;;;;;1.70;1.60;;;21.90;65.70;;;;;;5067523;28;20040;-30
2021/07/15 05:44:58;;;;;;;1.40;1.40;;;21.90;65.70;;;;;;5067368;28;20024;-30
2021/07/15 05:47:24;;;;;;;1.73;1.38;;;21.90;66.50;;;;;;5062488;28;20020;-31
2021/07/15 05:49:49;;;;;;;1.70;1.60;;;22.00;66.70;;;;;;5058357;28;20032;-32
2021/07/15 05:52:15;;;;;;;1.33;1.33;;;21.90;65.90;;;;;;5068580;28;20024;-31
2021/07/15 05:54:40;;;;;;;1.30;1.30;;;21.90;65.80;;;;;;5069541;28;20397;-30
2021/07/15 05:57:06;;;;;;;1.40;1.40;;;22.00;65.80;;;;;;5057431;28;20048;-29
2021/07/15 05:59:35;;;;;;;1.27;1.27;;;22.00;65.90;;;;;;5057656;28;20036;-35
2021/07/15 06:02:01;;;;;;;1.45;1.42;;;22.00;66.70;;;;;;5060600;28;20052;-30
2021/07/15 06:04:26;;;;;;;1.50;1.50;;;22.00;66.70;;;;;;5057999;28;20059;-37
2021/07/15 06:06:52;;;;;;;1.50;1.38;;;22.00;65.90;;;;;;5054749;28;20021;-28
2021/07/15 06:09:17;;;;;;;1.15;1.15;;;22.00;65.90;;;;;;5068084;28;20028;-29
2021/07/15 06:11:43;;;;;;;1.42;1.33;;;22.00;65.90;;;;;;5057632;28;20166;-29
2021/07/15 06:14:08;;;;;;;1.48;1.40;;;22.00;66.00;;;;;;5057606;28;20040;-27
2021/07/15 06:16:34;;;;;;;1.77;1.67;;;22.00;66.00;;;;;;5057795;28;20111;-27
2021/07/15 06:19:00;;;;;;;1.48;1.38;;;22.00;66.10;;;;;;5053401;28;20797;-35
2021/07/15 06:21:25;;;;;;;1.70;1.60;;;22.00;66.10;;;;;;5058241;28;20143;-27
2021/07/15 06:23:51;;;;;;;1.50;1.40;;;22.00;66.10;;;;;;5055844;28;20033;-26
2021/07/15 06:26:16;;;;;;;1.70;1.60;;;22.00;66.10;;;;;;5058091;28;20017;-28
2021/07/15 06:28:42;;;;;;;1.38;1.38;;;22.00;66.10;;;;;;5057565;28;20056;-32
2021/07/15 06:31:08;;;;;;;1.50;1.42;;;22.00;66.10;;;;;;5057538;28;20028;-32
2021/07/15 06:33:33;;;;;;;2.05;1.50;;;22.00;66.00;;;;;;5067188;28;20021;-33
2021/07/15 06:36:00;;;;;;;1.50;1.40;;;22.00;66.00;;;;;;5058908;28;20527;-25
2021/07/15 06:38:31;;;;;;;1.88;1.77;;;22.00;66.00;;;;;;5058784;28;20490;-33
2021/07/15 06:40:58;;;;;;;1.25;1.25;;;22.00;66.20;;;;;;5057872;28;20074;-29
2021/07/15 06:43:24;;;;;;;1.48;1.45;;;22.00;67.10;;;;;;5056548;28;20613;-27
2021/07/15 06:45:49;;;;;;;1.77;1.67;;;22.00;66.20;;;;;;5055523;28;20102;-32
2021/07/15 06:48:15;;;;;;;1.52;1.42;;;22.10;66.30;;;;;;5065843;28;20076;-28
2021/07/15 06:50:41;;;;;;;1.70;1.60;;;22.00;66.30;;;;;;5059880;28;20610;-32
2021/07/15 06:53:07;;;;;;;2.22;1.70;;;22.00;66.30;;;;;;5048447;28;20435;-27
2021/07/15 06:55:32;;;;;;;1.90;1.80;;;22.10;66.30;;;;;;5030580;28;20028;-30
2021/07/15 06:57:58;;;;;;;1.70;1.60;;;22.10;66.30;;;;;;5061846;28;20480;-30
2021/07/15 07:00:23;;;;;;;1.38;1.38;;;22.10;66.40;;;;;;5058644;28;20021;-28
2021/07/15 07:02:49;;;;;;;1.63;1.52;;;22.10;67.20;;;;;;5057525;28;20033;-27
2021/07/15 07:05:15;;;;;;;1.58;1.48;;;22.10;66.40;;;;;;5061322;28;20028;-27
2021/07/15 07:07:41;;;;;;;1.52;1.45;;;22.10;66.40;;;;;;5067710;28;20013;-28
2021/07/15 07:10:08;;;;;;;1.88;1.77;;;22.10;66.40;;;;;;5053767;28;20032;-30
2021/07/15 07:12:33;;;;;;;1.70;1.60;;;22.10;66.40;;;;;;5064199;28;20020;-32
2021/07/15 07:14:59;;;;;;;1.60;1.60;;;22.10;66.30;;;;;;5059235;28;20086;-32
2021/07/15 07:17:25;;;;;;;1.50;1.50;;;22.10;66.50;;;;;;5059692;28;20171;-33
2021/07/15 07:19:50;;;;;;;1.75;1.65;;;22.10;66.60;;;;;;5056407;28;20425;-28
2021/07/15 07:22:16;;;;;;;1.80;1.70;;;22.10;66.60;;;;;;5059519;28;20017;-26
2021/07/15 07:24:41;;;;;;;1.80;1.70;;;22.10;66.60;;;;;;5055943;28;20025;-38
2021/07/15 07:27:07;;;;;;;1.63;1.55;;;22.10;66.70;;;;;;5055527;28;20021;-31
2021/07/15 07:29:32;;;;;;;1.40;1.30;;;22.10;66.60;;;;;;5059322;28;20029;-27
2021/07/15 07:31:58;;;;;;;2.83;1.67;;;22.10;66.60;;;;;;5057077;28;20025;-28
2021/07/15 07:34:23;;;;;;;1.77;1.67;;;22.10;66.60;;;;;;5054844;28;20441;-30
2021/07/15 07:36:49;;;;;;;1.40;1.40;;;22.10;66.60;;;;;;5053531;28;20021;-29
2021/07/15 07:39:15;;;;;;;1.80;1.70;;;22.10;66.70;;;;;;5067706;28;20044;-28
2021/07/15 07:41:41;;;;;;;1.55;1.52;;;22.10;66.70;;;;;;5060848;28;20397;-31
2021/07/15 07:44:06;;;;;;;1.75;1.65;;;22.10;66.70;;;;;;5056851;28;20028;-32
2021/07/15 07:46:32;;;;;;;1.60;1.50;;;22.10;66.80;;;;;;5057647;28;20493;-29
2021/07/15 07:48:58;;;;;;;1.67;1.58;;;22.10;66.60;;;;;;5052471;28;20074;-30
2021/07/15 07:51:23;;;;;;;1.45;1.45;;;22.10;67.50;;;;;;5063278;28;20071;-28
2021/07/15 07:53:50;;;;;;;1.42;1.42;;;22.10;66.70;;;;;;5056680;28;20044;-28
2021/07/15 07:56:16;;;;;;;2.65;1.40;;;22.10;66.60;;;;;;5056573;28;20068;-29
2021/07/15 07:58:42;;;;;;;1.63;1.52;;;22.10;66.70;;;;;;5056308;28;20123;-27
2021/07/15 08:01:07;;;;;;;1.52;1.42;;;22.10;66.60;;;;;;5054674;28;20474;-29
2021/07/15 08:03:33;;;;;;;1.45;1.45;;;22.10;66.70;;;;;;5054930;28;20082;-28
2021/07/15 08:05:59;;;;;;;1.33;1.30;;;22.10;66.60;;;;;;5036427;28;20055;-29
2021/07/15 08:08:26;;;;;;;1.45;1.35;;;22.10;66.60;;;;;;5060610;28;20025;-28
2021/07/15 08:10:53;;;;;;;1.40;1.40;;;22.10;66.60;;;;;;5056102;28;20103;-32
2021/07/15 08:13:18;;;;;;;1.65;1.55;;;22.10;66.70;;;;;;5066258;28;20065;-33
2021/07/15 08:15:44;;;;;;;1.67;1.58;;;22.10;66.70;;;;;;5057912;28;20057;-31
2021/07/15 08:18:09;;;;;;;1.77;1.67;;;22.10;66.60;;;;;;5058200;28;20497;-27
2021/07/15 08:20:35;;;;;;;1.50;1.40;;;22.10;66.60;;;;;;5060360;28;20014;-33
2021/07/15 08:23:01;;;;;;;1.65;1.35;;;22.20;66.70;;;;;;5060051;28;20033;-34
2021/07/15 08:25:27;;;;;;;3.47;1.67;;;22.10;66.60;;;;;;5059611;28;20016;-32
2021/07/15 08:27:52;;;;;;;1.20;1.20;;;22.20;66.60;;;;;;5056016;28;20029;-33
2021/07/15 08:30:20;;;;;;;1.52;1.42;;;22.20;66.60;;;;;;5058393;28;20501;-27
2021/07/15 08:32:45;;;;;;;1.33;1.33;;;22.20;66.60;;;;;;5058970;28;20033;-27
2021/07/15 08:35:11;;;;;;;1.50;1.40;;;22.20;66.60;;;;;;5058761;28;20095;-30
2021/07/15 08:37:37;;;;;;;1.15;1.15;;;22.20;66.60;;;;;;5040837;28;20032;-34
2021/07/15 08:40:04;;;;;;;1.75;1.20;;;22.20;66.60;;;;;;5060111;28;20114;-30
2021/07/15 08:42:29;;;;;;;1.65;1.55;;;22.20;66.60;;;;;;5064240;28;20032;-28
2021/07/15 08:44:55;;;;;;;1.40;1.40;;;22.20;66.60;;;;;;5060021;28;20557;-28
2021/07/15 08:47:21;;;;;;;1.50;1.40;;;22.20;66.50;;;;;;5046828;28;20035;-30
2021/07/15 08:49:46;;;;;;;2.65;1.63;;;22.20;66.60;;;;;;5071126;28;20038;-32
2021/07/15 08:52:14;;;;;;;1.30;1.20;;;22.20;66.60;;;;;;5038214;28;20637;-27
2021/07/15 08:57:24;;;;;;;1.20;1.20;;;22.30;66.60;;;;;;5071799;28;20111;-28
2021/07/15 08:59:49;;;;;;;1.55;1.45;;;22.20;66.60;;;;;;5068738;28;20121;-29
2021/07/15 09:02:18;;;;;;;1.30;1.30;;;22.30;66.70;;;;;;5052359;28;20025;-30
2021/07/15 09:04:43;;;;;;;1.25;1.25;;;22.30;67.30;;;;;;5064249;28;20060;-34
2021/07/15 09:07:09;;;;;;;1.10;1.10;;;22.30;66.60;;;;;;5043365;28;20106;-28
2021/07/15 09:09:35;;;;;;;1.38;1.38;;;22.30;66.50;;;;;;5042180;28;20033;-32
2021/07/15 09:12:01;;;;;;;1.08;1.08;;;22.30;66.50;;;;;;5057232;28;20080;-32
2021/07/15 09:14:26;;;;;;;1.33;1.30;;;22.30;66.40;;;;;;5067946;28;20025;-28
2021/07/15 09:17:01;;;;;;;1.20;1.20;;;22.30;66.40;;;;;;5069911;28;20031;-30
2021/07/15 09:19:27;;;;;;;1.27;1.27;;;22.30;66.40;;;;;;5033452;28;20064;-25
2021/07/15 09:21:52;;;;;;;1.40;1.40;;;22.30;66.40;;;;;;5070666;28;20484;-30
2021/07/15 09:24:34;;;;;;;1.40;1.40;;;22.30;66.30;;;;;;5061303;28;20021;-35
2021/07/15 09:27:16;;;;;;;2.55;1.30;;;22.30;66.40;;;;;;5071235;28;20029;-28
2021/07/15 09:29:42;;;;;;;1.20;1.20;;;22.40;66.20;;;;;;5069441;28;20019;-28
2021/07/15 09:32:08;;;;;;;1.30;1.20;;;22.40;66.00;;;;;;5060704;28;20024;-30
2021/07/15 09:34:34;;;;;;;1.20;1.20;;;22.40;66.00;;;;;;5069621;28;20408;-34
2021/07/15 09:37:13;;;;;;;2.17;1.17;;;22.40;66.00;;;;;;5063991;28;20021;-29
2021/07/15 09:39:49;;;;;;;1.10;1.10;;;22.50;66.00;;;;;;5057437;28;20800;-26
2021/07/15 09:42:18;;;;;;;1.20;1.20;;;22.50;66.20;;;;;;5070259;28;20028;-28
2021/07/15 09:44:48;;;;;;;1.20;1.20;;;22.50;65.90;;;;;;5044902;28;20028;-30
2021/07/15 09:47:40;;;;;;;1.58;1.15;;;22.50;66.70;;;;;;5060180;28;20052;-28
2021/07/15 09:50:18;;;;;;;0.98;0.98;;;22.60;66.10;;;;;;5060460;28;20035;-27
2021/07/15 09:52:44;;;;;;;1.02;1.02;;;22.60;65.80;;;;;;5058438;28;20024;-28
2021/07/15 09:55:22;;;;;;;1.00;1.00;;;22.60;65.80;;;;;;5051470;28;20041;-30
2021/07/15 09:58:00;;;;;;;0.82;0.82;;;22.70;65.80;;;;;;5050985;28;20095;-31
2021/07/15 10:00:45;;;;;;;1.30;1.20;;;22.70;65.80;;;;;;5064002;28;20620;-26
2021/07/15 10:03:12;;;;;;;1.35;1.27;;;22.70;65.70;;;;;;5065655;28;20107;-32
2021/07/15 10:05:47;;;;;;;1.08;1.00;;;22.70;65.80;;;;;;5043829;28;20338;-28
2021/07/15 10:08:13;;;;;;;0.98;0.98;;;22.70;65.80;;;;;;5067890;28;20058;-35
2021/07/15 10:10:39;;;;;;;1.23;1.15;;;22.70;65.80;;;;;;5047032;28;20075;-27
2021/07/15 10:13:14;;;;;;;1.25;1.25;;;22.70;66.50;;;;;;5063532;28;20497;-33
2021/07/15 10:15:40;;;;;;;1.17;1.17;;;22.70;65.80;;;;;;5059549;28;20045;-28
2021/07/15 10:18:06;;;;;;;1.15;1.13;;;22.80;65.80;;;;;;5063247;28;20158;-32
2021/07/15 10:20:32;;;;;;;1.10;1.10;;;22.80;65.80;;;;;;5060302;28;20104;-33
2021/07/15 10:22:57;;;;;;;1.20;1.10;;;22.80;65.90;;;;;;5069258;28;20040;-33
2021/07/15 10:25:23;;;;;;;0.90;0.90;;;22.80;65.80;;;;;;5047882;28;20024;-29
2021/07/15 10:27:48;;;;;;;1.10;1.10;;;22.90;65.80;;;;;;5068288;28;20029;-28
2021/07/15 10:30:15;;;;;;;1.23;0.93;;;22.90;65.90;;;;;;5055429;28;20031;-27
2021/07/15 10:32:41;;;;;;;1.35;1.27;;;22.90;65.40;;;;;;4712684;28;9999962;-30
2021/07/15 10:35:08;;;;;;;1.15;1.10;;;22.90;65.70;;;;;;5031665;28;20028;-29
2021/07/15 10:37:39;;;;;;;0.90;0.90;;;22.90;65.70;;;;;;5063696;28;20068;-32
2021/07/15 10:40:10;;;;;;;0.88;0.88;;;22.90;65.70;;;;;;5053869;28;20044;-29
2021/07/15 10:42:36;;;;;;;1.02;1.02;;;22.90;65.80;;;;;;5050591;28;20048;-25
2021/07/15 10:45:02;;;;;;;1.13;1.13;;;23.00;65.80;;;;;;5066820;28;20036;-27
2021/07/15 10:47:28;;;;;;;0.93;0.90;;;23.00;65.50;;;;;;5065294;28;20021;-32
2021/07/15 10:49:58;;;;;;;1.05;0.95;;;23.00;65.60;;;;;;5030525;28;20047;-28
2021/07/15 10:52:24;;;;;;;1.02;1.02;;;23.00;65.50;;;;;;5066481;28;20383;-30
2021/07/15 10:54:50;;;;;;;1.45;1.35;;;23.00;65.40;;;;;;5051352;28;20040;-28
2021/07/15 10:57:19;;;;;;;0.90;0.90;;;23.00;65.40;;;;;;5067101;28;20048;-28
2021/07/15 10:59:45;;;;;;;0.85;0.82;;;23.00;65.40;;;;;;5063337;28;20028;-28
2021/07/15 11:02:24;;;;;;;1.98;1.10;;;23.10;65.30;;;;;;5063892;28;20519;-35
2021/07/15 11:04:51;;;;;;;1.27;1.27;;;23.10;65.20;;;;;;5066782;28;20089;-26
2021/07/15 11:07:19;;;;;;;1.10;1.10;;;23.10;65.20;;;;;;5069193;28;20020;-28
2021/07/15 11:09:44;;;;;;;0.93;0.90;;;23.10;65.20;;;;;;5066334;28;20047;-36
2021/07/15 11:12:29;;;;;;;1.13;1.00;;;23.10;65.20;;;;;;5067897;28;20521;-30
2021/07/15 11:15:11;;;;;;;0.93;0.93;;;23.10;65.30;;;;;;5066699;28;20500;-34
2021/07/15 11:17:48;;;;;;;1.20;1.20;;;23.10;65.10;;;;;;5047952;28;20570;-31
2021/07/15 11:20:14;;;;;;;1.40;1.30;;;23.10;65.20;;;;;;5066287;28;20029;-31
2021/07/15 11:22:43;;;;;;;1.13;1.13;;;23.10;65.10;;;;;;5067695;28;20432;-28
2021/07/15 11:25:10;;;;;;;1.42;1.33;;;23.10;65.10;;;;;;5066428;28;20028;-28
2021/07/15 11:27:39;;;;;;;1.20;1.20;;;23.10;65.10;;;;;;5068933;28;20025;-33
2021/07/15 11:30:07;;;;;;;0.90;0.90;;;23.10;65.10;;;;;;5068449;28;20032;-33
2021/07/15 11:32:33;;;;;;;1.00;1.00;;;23.20;65.10;;;;;;5066960;28;20025;-31
2021/07/15 11:34:59;;;;;;;1.10;1.10;;;23.20;64.90;;;;;;5031643;28;20060;-28
2021/07/15 11:37:36;;;;;;;1.00;1.00;;;23.20;65.00;;;;;;5069067;28;20690;-28
2021/07/15 11:40:05;;;;;;;1.08;1.08;;;23.20;64.80;;;;;;5067847;28;20032;-27
2021/07/15 11:42:35;;;;;;;0.93;0.93;;;23.20;64.90;;;;;;5067887;28;20120;-26
2021/07/15 11:45:05;;;;;;;1.10;1.10;;;23.20;64.70;;;;;;5065503;28;20029;-26
2021/07/15 11:47:42;;;;;;;1.05;1.05;;;23.20;64.80;;;;;;5056204;28;20025;-30
2021/07/15 11:50:37;;;;;;;1.05;1.05;;;23.20;64.80;;;;;;5053492;28;20025;-29
2021/07/15 11:53:23;;;;;;;1.20;1.20;;;23.20;64.80;;;;;;5060103;28;20024;-26
2021/07/15 11:55:53;;;;;;;1.17;1.17;;;23.30;64.70;;;;;;5067138;28;20088;-34
2021/07/15 11:58:42;;;;;;;1.20;1.20;;;23.20;64.80;;;;;;5067291;28;20064;-30
2021/07/15 12:01:24;;;;;;;1.10;1.10;;;23.20;64.70;;;;;;5057459;28;20509;-31
2021/07/15 12:03:57;;;;;;;0.90;0.90;;;23.30;64.70;;;;;;5054075;28;20122;-35
2021/07/15 12:06:23;;;;;;;1.00;1.00;;;23.30;64.70;;;;;;5069825;28;20464;-34
2021/07/15 12:08:48;;;;;;;1.20;1.10;;;23.30;64.90;;;;;;5061495;28;20132;-32
2021/07/15 12:11:21;;;;;;;1.50;1.00;;;23.30;65.50;;;;;;5063143;28;20049;-30
2021/07/15 12:13:53;;;;;;;1.17;1.17;;;23.30;64.80;;;;;;5068445;28;20025;-35
2021/07/15 12:16:20;;;;;;;1.20;1.20;;;23.30;64.80;;;;;;5064480;28;20040;-31
2021/07/15 12:18:46;;;;;;;1.20;1.20;;;23.30;64.90;;;;;;5056482;28;20119;-29
2021/07/15 12:21:12;;;;;;;1.10;1.10;;;23.30;64.80;;;;;;5058805;28;20112;-28
2021/07/15 12:23:40;;;;;;;0.80;0.80;;;23.20;64.70;;;;;;5059724;28;20063;-29
2021/07/15 12:26:07;;;;;;;1.00;1.00;;;23.20;64.90;;;;;;5061044;28;20544;-28
2021/07/15 12:28:32;;;;;;;1.00;1.00;;;23.30;64.90;;;;;;5070401;28;20025;-35
2021/07/15 12:31:00;;;;;;;1.20;1.20;;;23.20;64.80;;;;;;5055308;28;20036;-34
2021/07/15 12:33:44;;;;;;;1.10;1.08;;;23.30;65.70;;;;;;5062607;28;20036;-33
2021/07/15 12:36:13;;;;;;;1.13;0.98;;;23.30;64.80;;;;;;5059190;28;20569;-29
2021/07/15 12:38:39;;;;;;;1.15;1.08;;;23.30;64.70;;;;;;5065199;28;20093;-28
2021/07/15 12:41:13;;;;;;;1.10;1.10;;;23.30;64.80;;;;;;5062941;28;20104;-30
2021/07/15 12:43:40;;;;;;;;;;;23.30;64.70;;;;;;5060323;28;20033;-28
2021/07/15 12:46:34;;;;;;;1.35;1.25;;;23.40;64.80;;;;;;5066428;28;20286;-28
2021/07/15 12:49:05;;;;;;;1.17;1.17;;;23.30;64.70;;;;;;5042333;28;20076;-31
2021/07/15 12:51:50;;;;;;;1.20;1.10;;;23.40;64.70;;;;;;5058386;28;20110;-31
2021/07/15 12:57:11;;;;;;;0.98;0.98;;;23.40;64.70;;;;;;5059276;28;20068;-29
2021/07/15 12:59:37;;;;;;;0.98;0.98;;;23.40;64.60;;;;;;5058688;28;20486;-32